sensor_id;sensor_type;location;lat;lon;timestamp;pressure;altitude;pressure_sealevel;temperature;humidity
46782;BME280;32541;46.298;11.506;2024-01-15T00:00:33;88223.94;;;-1.62;87.00
46782;BME280;32541;46.298;11.506;2024-01-15T00:02:58;88217.13;;;-1.63;87.35
46782;BME280;32541;46.298;11.506;2024-01-15T00:05:24;88218.94;;;-1.58;86.94
46782;BME280;32541;46.298;11.506;2024-01-15T00:07:49;88214.41;;;-1.63;85.84
46782;BME280;32541;46.298;11.506;2024-01-15T00:10:15;88209.22;;;-1.61;86.38
46782;BME280;32541;46.298;11.506;2024-01-15T00:12:40;88203.50;;;-1.57;87.05
46782;BME280;32541;46.298;11.506;2024-01-15T00:15:06;88208.16;;;-1.58;86.40
46782;BME280;32541;46.298;11.506;2024-01-15T00:17:32;88205.44;;;-1.73;87.21
46782;BME280;32541;46.298;11.506;2024-01-15T00:19:57;88204.50;;;-1.83;88.75
46782;BME280;32541;46.298;11.506;2024-01-15T00:22:25;88198.34;;;-2.06;90.72
46782;BME280;32541;46.298;11.506;2024-01-15T00:24:51;88197.97;;;-2.10;89.83
46782;BME280;32541;46.298;11.506;2024-01-15T00:27:16;88185.44;;;-2.00;89.43
46782;BME280;32541;46.298;11.506;2024-01-15T00:29:42;88181.13;;;-2.03;89.05
46782;BME280;32541;46.298;11.506;2024-01-15T00:32:07;88174.28;;;-2.04;89.79
46782;BME280;32541;46.298;11.506;2024-01-15T00:34:32;88166.22;;;-2.04;90.13
46782;BME280;32541;46.298;11.506;2024-01-15T00:36:58;88162.81;;;-1.97;90.11
46782;BME280;32541;46.298;11.506;2024-01-15T00:39:23;88152.59;;;-1.91;89.76
46782;BME280;32541;46.298;11.506;2024-01-15T00:41:48;88150.25;;;-1.95;89.27
46782;BME280;32541;46.298;11.506;2024-01-15T00:44:14;88152.44;;;-1.93;90.09
46782;BME280;32541;46.298;11.506;2024-01-15T00:46:43;88159.22;;;-1.92;90.34
46782;BME280;32541;46.298;11.506;2024-01-15T00:49:09;88149.00;;;-1.94;89.43
46782;BME280;32541;46.298;11.506;2024-01-15T00:51:35;88158.16;;;-1.97;89.28
46782;BME280;32541;46.298;11.506;2024-01-15T00:54:00;88165.34;;;-1.99;88.56
46782;BME280;32541;46.298;11.506;2024-01-15T00:56:25;88159.22;;;-1.92;88.46
46782;BME280;32541;46.298;11.506;2024-01-15T00:58:51;88154.19;;;-1.96;88.53
46782;BME280;32541;46.298;11.506;2024-01-15T01:01:16;88161.94;;;-1.92;87.78
46782;BME280;32541;46.298;11.506;2024-01-15T01:03:41;88158.88;;;-1.96;88.10
46782;BME280;32541;46.298;11.506;2024-01-15T01:06:07;88152.44;;;-1.86;87.52
46782;BME280;32541;46.298;11.506;2024-01-15T01:08:32;88160.34;;;-1.80;86.10
46782;BME280;32541;46.298;11.506;2024-01-15T01:10:57;88163.94;;;-1.85;86.41
46782;BME280;32541;46.298;11.506;2024-01-15T01:13:23;88156.72;;;-2.05;87.23
46782;BME280;32541;46.298;11.506;2024-01-15T01:15:48;88164.06;;;-2.06;87.59
46782;BME280;32541;46.298;11.506;2024-01-15T01:18:13;88167.78;;;-2.16;87.65
46782;BME280;32541;46.298;11.506;2024-01-15T01:20:39;88165.66;;;-2.18;88.37
46782;BME280;32541;46.298;11.506;2024-01-15T01:23:04;88160.81;;;-2.12;88.69
46782;BME280;32541;46.298;11.506;2024-01-15T01:25:30;88151.63;;;-2.16;89.15
46782;BME280;32541;46.298;11.506;2024-01-15T01:27:55;88147.53;;;-2.10;88.78
46782;BME280;32541;46.298;11.506;2024-01-15T01:30:20;88145.94;;;-2.05;89.15
46782;BME280;32541;46.298;11.506;2024-01-15T01:32:46;88131.91;;;-2.11;89.65
46782;BME280;32541;46.298;11.506;2024-01-15T01:35:12;88141.06;;;-2.14;89.54
46782;BME280;32541;46.298;11.506;2024-01-15T01:37:38;88138.94;;;-2.08;89.70
46782;BME280;32541;46.298;11.506;2024-01-15T01:40:04;88129.78;;;-2.05;89.94
46782;BME280;32541;46.298;11.506;2024-01-15T01:42:29;88121.63;;;-2.28;90.41
46782;BME280;32541;46.298;11.506;2024-01-15T01:44:54;88124.38;;;-2.13;89.28
46782;BME280;32541;46.298;11.506;2024-01-15T01:47:20;88121.50;;;-2.15;88.66
46782;BME280;32541;46.298;11.506;2024-01-15T01:49:46;88122.91;;;-2.29;88.50
46782;BME280;32541;46.298;11.506;2024-01-15T01:52:12;88115.69;;;-2.42;89.46
46782;BME280;32541;46.298;11.506;2024-01-15T01:54:38;88124.66;;;-2.32;88.89
46782;BME280;32541;46.298;11.506;2024-01-15T01:57:05;88131.00;;;-2.21;88.43
46782;BME280;32541;46.298;11.506;2024-01-15T01:59:32;88125.06;;;-2.28;89.10
46782;BME280;32541;46.298;11.506;2024-01-15T02:02:00;88127.56;;;-2.30;89.45
46782;BME280;32541;46.298;11.506;2024-01-15T02:04:26;88123.97;;;-2.25;89.82
46782;BME280;32541;46.298;11.506;2024-01-15T02:06:52;88119.66;;;-2.28;89.21
46782;BME280;32541;46.298;11.506;2024-01-15T02:09:18;88103.53;;;-2.28;88.80
46782;BME280;32541;46.298;11.506;2024-01-15T02:11:45;88106.22;;;-2.28;88.05
46782;BME280;32541;46.298;11.506;2024-01-15T02:14:11;88099.03;;;-2.33;88.07
46782;BME280;32541;46.298;11.506;2024-01-15T02:16:36;88097.59;;;-2.34;88.56
46782;BME280;32541;46.298;11.506;2024-01-15T02:19:02;88093.47;;;-2.35;89.10
46782;BME280;32541;46.298;11.506;2024-01-15T02:21:27;88089.69;;;-2.32;89.43
46782;BME280;32541;46.298;11.506;2024-01-15T02:23:54;88095.47;;;-2.20;88.72
46782;BME280;32541;46.298;11.506;2024-01-15T02:26:20;88084.50;;;-2.22;87.74
46782;BME280;32541;46.298;11.506;2024-01-15T02:28:46;88091.31;;;-2.29;87.88
46782;BME280;32541;46.298;11.506;2024-01-15T02:31:11;88083.78;;;-2.38;87.83
46782;BME280;32541;46.298;11.506;2024-01-15T02:33:36;88069.03;;;-2.44;88.37
46782;BME280;32541;46.298;11.506;2024-01-15T02:36:02;88073.91;;;-2.35;88.13
46782;BME280;32541;46.298;11.506;2024-01-15T02:38:27;88054.69;;;-2.47;87.17
46782;BME280;32541;46.298;11.506;2024-01-15T02:40:53;88067.25;;;-2.42;86.69
46782;BME280;32541;46.298;11.506;2024-01-15T02:43:18;88065.63;;;-2.45;85.96
46782;BME280;32541;46.298;11.506;2024-01-15T02:45:44;88061.84;;;-2.57;86.41
46782;BME280;32541;46.298;11.506;2024-01-15T02:48:10;88057.16;;;-2.64;86.17
46782;BME280;32541;46.298;11.506;2024-01-15T02:50:35;88040.09;;;-2.66;86.56
46782;BME280;32541;46.298;11.506;2024-01-15T02:53:01;88037.41;;;-2.74;87.35
46782;BME280;32541;46.298;11.506;2024-01-15T02:55:26;88025.06;;;-2.62;87.58
46782;BME280;32541;46.298;11.506;2024-01-15T02:57:54;88019.69;;;-2.62;86.87
46782;BME280;32541;46.298;11.506;2024-01-15T03:00:19;88023.06;;;-2.69;86.66
46782;BME280;32541;46.298;11.506;2024-01-15T03:02:45;88026.66;;;-2.74;87.24
46782;BME280;32541;46.298;11.506;2024-01-15T03:05:10;88028.97;;;-2.78;86.82
46782;BME280;32541;46.298;11.506;2024-01-15T03:07:36;88022.38;;;-2.62;86.46
46782;BME280;32541;46.298;11.506;2024-01-15T03:10:02;88021.06;;;-2.91;88.60
46782;BME280;32541;46.298;11.506;2024-01-15T03:12:27;88007.38;;;-3.01;89.18
46782;BME280;32541;46.298;11.506;2024-01-15T03:14:53;88005.38;;;-3.08;89.33
46782;BME280;32541;46.298;11.506;2024-01-15T03:17:18;88005.56;;;-3.13;89.14
46782;BME280;32541;46.298;11.506;2024-01-15T03:19:44;88001.81;;;-3.03;88.56
46782;BME280;32541;46.298;11.506;2024-01-15T03:22:09;87997.53;;;-2.98;88.00
46782;BME280;32541;46.298;11.506;2024-01-15T03:24:35;87997.88;;;-3.09;88.15
46782;BME280;32541;46.298;11.506;2024-01-15T03:27:01;88004.88;;;-2.99;87.59
46782;BME280;32541;46.298;11.506;2024-01-15T03:29:27;88002.53;;;-3.10;88.79
46782;BME280;32541;46.298;11.506;2024-01-15T03:31:52;88000.00;;;-3.15;88.51
46782;BME280;32541;46.298;11.506;2024-01-15T03:34:18;87997.81;;;-3.17;88.69
46782;BME280;32541;46.298;11.506;2024-01-15T03:36:43;88004.28;;;-3.20;88.51
46782;BME280;32541;46.298;11.506;2024-01-15T03:39:09;88006.59;;;-3.24;88.70
46782;BME280;32541;46.298;11.506;2024-01-15T03:41:34;88001.56;;;-3.20;88.79
46782;BME280;32541;46.298;11.506;2024-01-15T03:44:00;88004.09;;;-3.22;88.38
46782;BME280;32541;46.298;11.506;2024-01-15T03:46:25;88003.34;;;-3.30;89.38
46782;BME280;32541;46.298;11.506;2024-01-15T03:48:50;88005.66;;;-3.34;89.24
46782;BME280;32541;46.298;11.506;2024-01-15T03:51:19;88008.22;;;-3.21;88.92
46782;BME280;32541;46.298;11.506;2024-01-15T03:53:45;88012.25;;;-3.43;90.11
46782;BME280;32541;46.298;11.506;2024-01-15T03:56:10;88005.25;;;-3.46;90.54
46782;BME280;32541;46.298;11.506;2024-01-15T03:58:36;88010.44;;;-3.48;90.69
46782;BME280;32541;46.298;11.506;2024-01-15T04:01:01;88003.72;;;-3.62;91.21
46782;BME280;32541;46.298;11.506;2024-01-15T04:03:27;88014.47;;;-3.62;90.99
46782;BME280;32541;46.298;11.506;2024-01-15T04:05:52;88020.91;;;-3.65;90.84
46782;BME280;32541;46.298;11.506;2024-01-15T04:08:17;88012.66;;;-3.67;91.19
46782;BME280;32541;46.298;11.506;2024-01-15T04:10:43;88021.25;;;-3.68;91.18
46782;BME280;32541;46.298;11.506;2024-01-15T04:13:08;88002.88;;;-3.57;90.85
46782;BME280;32541;46.298;11.506;2024-01-15T04:15:33;87997.66;;;-3.62;91.17
46782;BME280;32541;46.298;11.506;2024-01-15T04:17:59;88007.69;;;-3.63;90.99
46782;BME280;32541;46.298;11.506;2024-01-15T04:20:26;87995.09;;;-3.68;91.64
46782;BME280;32541;46.298;11.506;2024-01-15T04:22:52;87991.91;;;-3.66;90.91
46782;BME280;32541;46.298;11.506;2024-01-15T04:25:17;87989.78;;;-3.60;91.05
46782;BME280;32541;46.298;11.506;2024-01-15T04:27:42;87982.97;;;-3.61;91.72
46782;BME280;32541;46.298;11.506;2024-01-15T04:30:08;87969.00;;;-3.60;91.30
46782;BME280;32541;46.298;11.506;2024-01-15T04:32:33;87980.44;;;-3.67;91.53
46782;BME280;32541;46.298;11.506;2024-01-15T04:34:59;87978.28;;;-3.68;92.54
46782;BME280;32541;46.298;11.506;2024-01-15T04:37:24;87979.75;;;-3.60;91.46
46782;BME280;32541;46.298;11.506;2024-01-15T04:39:49;87987.31;;;-3.51;90.83
46782;BME280;32541;46.298;11.506;2024-01-15T04:42:18;87980.00;;;-3.43;90.91
46782;BME280;32541;46.298;11.506;2024-01-15T04:44:43;87979.06;;;-3.53;91.35
46782;BME280;32541;46.298;11.506;2024-01-15T04:47:08;87979.41;;;-3.56;91.50
46782;BME280;32541;46.298;11.506;2024-01-15T04:49:34;87973.31;;;-3.57;90.85
46782;BME280;32541;46.298;11.506;2024-01-15T04:51:59;87970.63;;;-3.57;90.87
46782;BME280;32541;46.298;11.506;2024-01-15T04:54:24;87970.09;;;-3.55;90.61
46782;BME280;32541;46.298;11.506;2024-01-15T04:56:50;87963.63;;;-3.60;90.56
46782;BME280;32541;46.298;11.506;2024-01-15T04:59:15;87953.25;;;-3.63;90.64
46782;BME280;32541;46.298;11.506;2024-01-15T05:01:41;87951.06;;;-3.65;90.59
46782;BME280;32541;46.298;11.506;2024-01-15T05:04:06;87943.56;;;-3.59;90.67
46782;BME280;32541;46.298;11.506;2024-01-15T05:06:31;87936.94;;;-3.65;90.06
46782;BME280;32541;46.298;11.506;2024-01-15T05:08:57;87931.03;;;-3.64;91.56
46782;BME280;32541;46.298;11.506;2024-01-15T05:11:23;87926.09;;;-3.37;91.41
46782;BME280;32541;46.298;11.506;2024-01-15T05:13:48;87934.03;;;-3.75;92.56
46782;BME280;32541;46.298;11.506;2024-01-15T05:16:13;87932.75;;;-3.74;92.56
46782;BME280;32541;46.298;11.506;2024-01-15T05:18:39;87928.47;;;-3.77;92.60
46782;BME280;32541;46.298;11.506;2024-01-15T05:21:04;87932.00;;;-3.89;92.80
46782;BME280;32541;46.298;11.506;2024-01-15T05:23:31;87927.00;;;-3.85;92.95
46782;BME280;32541;46.298;11.506;2024-01-15T05:25:57;87921.63;;;-3.85;92.70
46782;BME280;32541;46.298;11.506;2024-01-15T05:28:22;87930.56;;;-3.90;93.20
46782;BME280;32541;46.298;11.506;2024-01-15T05:30:48;87920.59;;;-3.75;92.20
46782;BME280;32541;46.298;11.506;2024-01-15T05:33:13;87929.00;;;-3.78;91.73
46782;BME280;32541;46.298;11.506;2024-01-15T05:35:39;87923.41;;;-3.88;92.95
46782;BME280;32541;46.298;11.506;2024-01-15T05:38:04;87923.78;;;-3.84;93.36
46782;BME280;32541;46.298;11.506;2024-01-15T05:40:29;87919.66;;;-3.85;92.54
46782;BME280;32541;46.298;11.506;2024-01-15T05:42:55;87922.75;;;-3.73;93.37
46782;BME280;32541;46.298;11.506;2024-01-15T05:45:20;87910.16;;;-3.86;92.92
46782;BME280;32541;46.298;11.506;2024-01-15T05:47:45;87923.03;;;-3.92;93.39
46782;BME280;32541;46.298;11.506;2024-01-15T05:50:11;87920.72;;;-3.88;93.82
46782;BME280;32541;46.298;11.506;2024-01-15T05:52:36;87913.16;;;-3.97;93.84
46782;BME280;32541;46.298;11.506;2024-01-15T05:55:02;87910.47;;;-3.97;94.20
46782;BME280;32541;46.298;11.506;2024-01-15T05:57:27;87912.59;;;-4.03;93.79
46782;BME280;32541;46.298;11.506;2024-01-15T05:59:53;87908.13;;;-4.01;93.98
46782;BME280;32541;46.298;11.506;2024-01-15T06:02:19;87901.69;;;-3.98;93.33
46782;BME280;32541;46.298;11.506;2024-01-15T06:04:44;87901.91;;;-3.96;93.44
46782;BME280;32541;46.298;11.506;2024-01-15T06:07:10;87900.28;;;-3.99;93.29
46782;BME280;32541;46.298;11.506;2024-01-15T06:09:35;87890.78;;;-4.00;93.84
46782;BME280;32541;46.298;11.506;2024-01-15T06:12:00;87889.34;;;-4.01;93.48
46782;BME280;32541;46.298;11.506;2024-01-15T06:14:26;87884.31;;;-4.04;93.40
46782;BME280;32541;46.298;11.506;2024-01-15T06:16:52;87881.66;;;-4.04;93.16
46782;BME280;32541;46.298;11.506;2024-01-15T06:19:17;87873.22;;;-4.08;92.63
46782;BME280;32541;46.298;11.506;2024-01-15T06:21:42;87877.34;;;-4.07;92.93
46782;BME280;32541;46.298;11.506;2024-01-15T06:24:08;87874.28;;;-4.11;93.75
46782;BME280;32541;46.298;11.506;2024-01-15T06:26:35;87879.47;;;-4.13;93.49
46782;BME280;32541;46.298;11.506;2024-01-15T06:29:00;87879.63;;;-4.11;93.05
46782;BME280;32541;46.298;11.506;2024-01-15T06:31:26;87869.84;;;-4.01;94.45
46782;BME280;32541;46.298;11.506;2024-01-15T06:33:51;87868.47;;;-3.79;94.49
46782;BME280;32541;46.298;11.506;2024-01-15T06:36:16;87865.06;;;-3.87;93.43
46782;BME280;32541;46.298;11.506;2024-01-15T06:38:43;87872.88;;;-3.97;93.97
46782;BME280;32541;46.298;11.506;2024-01-15T06:41:09;87867.66;;;-4.10;93.18
46782;BME280;32541;46.298;11.506;2024-01-15T06:43:34;87878.41;;;-4.10;93.37
46782;BME280;32541;46.298;11.506;2024-01-15T06:46:00;87876.06;;;-4.14;92.93
46782;BME280;32541;46.298;11.506;2024-01-15T06:48:25;87884.25;;;-4.19;92.97
46782;BME280;32541;46.298;11.506;2024-01-15T06:50:50;87875.72;;;-4.10;92.45
46782;BME280;32541;46.298;11.506;2024-01-15T06:53:16;87878.00;;;-4.14;91.75
46782;BME280;32541;46.298;11.506;2024-01-15T06:55:41;87879.97;;;-4.15;91.17
46782;BME280;32541;46.298;11.506;2024-01-15T06:58:06;87877.06;;;-4.24;91.77
46782;BME280;32541;46.298;11.506;2024-01-15T07:00:32;87877.44;;;-4.20;91.94
46782;BME280;32541;46.298;11.506;2024-01-15T07:02:57;87880.69;;;-4.14;92.07
46782;BME280;32541;46.298;11.506;2024-01-15T07:05:23;87890.34;;;-4.19;92.60
46782;BME280;32541;46.298;11.506;2024-01-15T07:07:49;87885.50;;;-4.20;92.92
46782;BME280;32541;46.298;11.506;2024-01-15T07:10:15;87886.16;;;-4.27;92.78
46782;BME280;32541;46.298;11.506;2024-01-15T07:12:44;87886.38;;;-4.25;92.23
46782;BME280;32541;46.298;11.506;2024-01-15T07:15:09;87892.63;;;-4.23;92.71
46782;BME280;32541;46.298;11.506;2024-01-15T07:17:35;87889.81;;;-4.17;91.74
46782;BME280;32541;46.298;11.506;2024-01-15T07:20:01;87894.59;;;-4.23;92.46
46782;BME280;32541;46.298;11.506;2024-01-15T07:22:27;87893.13;;;-4.32;92.74
46782;BME280;32541;46.298;11.506;2024-01-15T07:24:52;87901.13;;;-4.39;92.62
46782;BME280;32541;46.298;11.506;2024-01-15T07:27:18;87901.50;;;-4.35;92.74
46782;BME280;32541;46.298;11.506;2024-01-15T07:29:43;87901.84;;;-4.39;93.82
46782;BME280;32541;46.298;11.506;2024-01-15T07:32:09;87905.63;;;-4.34;92.54
46782;BME280;32541;46.298;11.506;2024-01-15T07:34:34;87909.63;;;-4.28;93.12
46782;BME280;32541;46.298;11.506;2024-01-15T07:37:00;87912.81;;;-4.29;92.99
46782;BME280;32541;46.298;11.506;2024-01-15T07:39:25;87900.13;;;-4.29;92.61
46782;BME280;32541;46.298;11.506;2024-01-15T07:41:51;87896.97;;;-4.12;93.03
46782;BME280;32541;46.298;11.506;2024-01-15T07:44:17;87900.72;;;-4.15;93.40
46782;BME280;32541;46.298;11.506;2024-01-15T07:46:46;87898.41;;;-4.19;93.88
46782;BME280;32541;46.298;11.506;2024-01-15T07:49:12;87905.66;;;-4.27;94.00
46782;BME280;32541;46.298;11.506;2024-01-15T07:51:38;87911.41;;;-4.23;93.21
46782;BME280;32541;46.298;11.506;2024-01-15T07:54:05;87908.19;;;-4.21;93.93
46782;BME280;32541;46.298;11.506;2024-01-15T07:56:31;87905.25;;;-2.63;90.29
46782;BME280;32541;46.298;11.506;2024-01-15T07:58:57;87895.00;;;0.07;81.66
46782;BME280;32541;46.298;11.506;2024-01-15T08:01:22;87894.25;;;2.38;74.80
46782;BME280;32541;46.298;11.506;2024-01-15T08:03:47;87886.38;;;4.39;64.90
46782;BME280;32541;46.298;11.506;2024-01-15T08:06:13;87881.72;;;6.15;55.32
46782;BME280;32541;46.298;11.506;2024-01-15T08:08:38;87880.91;;;7.45;48.79
46782;BME280;32541;46.298;11.506;2024-01-15T08:11:04;87875.44;;;8.34;46.02
46782;BME280;32541;46.298;11.506;2024-01-15T08:13:29;87871.47;;;9.19;43.96
46782;BME280;32541;46.298;11.506;2024-01-15T08:15:56;87877.88;;;9.95;42.52
46782;BME280;32541;46.298;11.506;2024-01-15T08:18:21;87871.25;;;9.28;41.88
46782;BME280;32541;46.298;11.506;2024-01-15T08:20:47;87886.31;;;8.46;42.93
46782;BME280;32541;46.298;11.506;2024-01-15T08:23:13;87885.47;;;6.92;44.67
46782;BME280;32541;46.298;11.506;2024-01-15T08:25:38;87889.97;;;5.05;48.78
46782;BME280;32541;46.298;11.506;2024-01-15T08:28:03;87883.81;;;7.35;44.46
46782;BME280;32541;46.298;11.506;2024-01-15T08:30:29;87872.56;;;9.41;42.20
46782;BME280;32541;46.298;11.506;2024-01-15T08:32:55;87878.84;;;10.78;40.05
46782;BME280;32541;46.298;11.506;2024-01-15T08:35:20;87870.00;;;11.62;37.64
46782;BME280;32541;46.298;11.506;2024-01-15T08:37:50;87864.00;;;11.83;37.41
46782;BME280;32541;46.298;11.506;2024-01-15T08:40:16;87859.03;;;11.97;37.46
46782;BME280;32541;46.298;11.506;2024-01-15T08:42:42;87856.44;;;12.56;35.82
46782;BME280;32541;46.298;11.506;2024-01-15T08:45:08;87847.16;;;12.10;36.51
46782;BME280;32541;46.298;11.506;2024-01-15T08:47:33;87847.63;;;11.69;37.28
46782;BME280;32541;46.298;11.506;2024-01-15T08:49:59;87849.91;;;11.42;36.37
46782;BME280;32541;46.298;11.506;2024-01-15T08:52:25;87856.84;;;8.19;40.11
46782;BME280;32541;46.298;11.506;2024-01-15T08:54:50;87861.44;;;6.07;45.69
46782;BME280;32541;46.298;11.506;2024-01-15T08:57:16;87852.28;;;7.09;44.17
46782;BME280;32541;46.298;11.506;2024-01-15T08:59:41;87848.25;;;7.86;42.81
46782;BME280;32541;46.298;11.506;2024-01-15T09:02:07;87843.28;;;8.34;41.92
46782;BME280;32541;46.298;11.506;2024-01-15T09:04:33;87833.16;;;8.51;41.95
46782;BME280;32541;46.298;11.506;2024-01-15T09:06:58;87838.44;;;8.87;41.46
46782;BME280;32541;46.298;11.506;2024-01-15T09:09:23;87835.38;;;8.81;40.19
46782;BME280;32541;46.298;11.506;2024-01-15T09:11:50;87834.34;;;7.31;42.39
46782;BME280;32541;46.298;11.506;2024-01-15T09:14:15;87845.25;;;5.76;46.39
46782;BME280;32541;46.298;11.506;2024-01-15T09:16:40;87838.53;;;6.00;46.24
46782;BME280;32541;46.298;11.506;2024-01-15T09:19:06;87834.88;;;6.19;46.15
46782;BME280;32541;46.298;11.506;2024-01-15T09:21:31;87835.09;;;5.32;46.94
46782;BME280;32541;46.298;11.506;2024-01-15T09:23:56;87834.59;;;5.24;48.21
46782;BME280;32541;46.298;11.506;2024-01-15T09:26:22;87827.66;;;5.44;47.15
46782;BME280;32541;46.298;11.506;2024-01-15T09:28:47;87818.09;;;5.78;47.49
46782;BME280;32541;46.298;11.506;2024-01-15T09:31:13;87811.03;;;6.80;47.22
46782;BME280;32541;46.298;11.506;2024-01-15T09:33:38;87823.91;;;7.27;43.31
46782;BME280;32541;46.298;11.506;2024-01-15T09:36:04;87817.75;;;6.42;44.23
46782;BME280;32541;46.298;11.506;2024-01-15T09:38:30;87817.91;;;5.97;46.69
46782;BME280;32541;46.298;11.506;2024-01-15T09:40:57;87810.22;;;5.94;46.70
46782;BME280;32541;46.298;11.506;2024-01-15T09:43:23;87812.50;;;6.57;45.67
46782;BME280;32541;46.298;11.506;2024-01-15T09:45:49;87814.31;;;6.90;44.89
46782;BME280;32541;46.298;11.506;2024-01-15T09:48:15;87820.88;;;6.01;45.34
46782;BME280;32541;46.298;11.506;2024-01-15T09:50:40;87821.56;;;4.57;48.11
46782;BME280;32541;46.298;11.506;2024-01-15T09:53:06;87824.06;;;4.22;49.17
46782;BME280;32541;46.298;11.506;2024-01-15T09:55:32;87814.81;;;3.54;51.30
46782;BME280;32541;46.298;11.506;2024-01-15T09:58:00;87811.09;;;3.09;52.16
46782;BME280;32541;46.298;11.506;2024-01-15T10:00:27;87799.84;;;4.05;51.12
46782;BME280;32541;46.298;11.506;2024-01-15T10:02:53;87798.00;;;3.77;50.68
46782;BME280;32541;46.298;11.506;2024-01-15T10:05:18;87790.19;;;4.35;49.98
46782;BME280;32541;46.298;11.506;2024-01-15T10:07:45;87776.59;;;4.89;49.29
46782;BME280;32541;46.298;11.506;2024-01-15T10:10:11;87771.75;;;5.55;47.72
46782;BME280;32541;46.298;11.506;2024-01-15T10:12:37;87772.31;;;5.53;47.32
46782;BME280;32541;46.298;11.506;2024-01-15T10:15:04;87763.41;;;6.34;46.12
46782;BME280;32541;46.298;11.506;2024-01-15T10:17:30;87768.47;;;6.51;46.51
46782;BME280;32541;46.298;11.506;2024-01-15T10:19:57;87761.38;;;7.08;44.54
46782;BME280;32541;46.298;11.506;2024-01-15T10:22:22;87757.50;;;6.26;46.68
46782;BME280;32541;46.298;11.506;2024-01-15T10:24:48;87756.75;;;5.21;48.35
46782;BME280;32541;46.298;11.506;2024-01-15T10:27:13;87752.91;;;6.05;47.06
46782;BME280;32541;46.298;11.506;2024-01-15T10:29:41;87761.75;;;3.84;51.25
46782;BME280;32541;46.298;11.506;2024-01-15T10:32:07;87758.69;;;2.97;54.46
46782;BME280;32541;46.298;11.506;2024-01-15T10:34:39;87756.47;;;2.65;55.34
46782;BME280;32541;46.298;11.506;2024-01-15T10:37:07;87758.50;;;2.45;54.92
46782;BME280;32541;46.298;11.506;2024-01-15T10:39:32;87748.50;;;2.67;55.08
46782;BME280;32541;46.298;11.506;2024-01-15T10:41:58;87741.03;;;2.77;54.83
46782;BME280;32541;46.298;11.506;2024-01-15T10:44:23;87740.09;;;2.15;55.99
46782;BME280;32541;46.298;11.506;2024-01-15T10:46:49;87737.84;;;1.92;57.21
46782;BME280;32541;46.298;11.506;2024-01-15T10:49:15;87737.97;;;1.75;57.54
46782;BME280;32541;46.298;11.506;2024-01-15T10:51:42;87726.03;;;2.76;56.25
46782;BME280;32541;46.298;11.506;2024-01-15T10:54:09;87728.66;;;3.05;55.16
46782;BME280;32541;46.298;11.506;2024-01-15T10:56:37;87733.06;;;3.50;54.04
46782;BME280;32541;46.298;11.506;2024-01-15T10:59:03;87728.81;;;3.38;54.71
46782;BME280;32541;46.298;11.506;2024-01-15T11:01:30;87713.25;;;4.02;53.13
46782;BME280;32541;46.298;11.506;2024-01-15T11:03:56;87712.34;;;4.63;52.75
46782;BME280;32541;46.298;11.506;2024-01-15T11:06:24;87714.94;;;4.61;52.25
46782;BME280;32541;46.298;11.506;2024-01-15T11:08:52;87719.72;;;4.72;51.97
46782;BME280;32541;46.298;11.506;2024-01-15T11:11:18;87709.34;;;4.26;53.00
46782;BME280;32541;46.298;11.506;2024-01-15T11:13:46;87709.63;;;5.30;52.06
46782;BME280;32541;46.298;11.506;2024-01-15T11:16:13;87702.06;;;4.40;53.13
46782;BME280;32541;46.298;11.506;2024-01-15T11:18:48;87686.94;;;4.81;52.52
46782;BME280;32541;46.298;11.506;2024-01-15T11:21:26;87673.59;;;5.90;50.62
46782;BME280;32541;46.298;11.506;2024-01-15T11:29:05;87669.31;;;6.60;48.14
46782;BME280;32541;46.298;11.506;2024-01-15T11:34:07;87667.09;;;6.20;49.00
46782;BME280;32541;46.298;11.506;2024-01-15T11:41:56;87653.28;;;6.30;47.88
46782;BME280;32541;46.298;11.506;2024-01-15T11:44:22;87643.75;;;6.17;49.29
46782;BME280;32541;46.298;11.506;2024-01-15T11:46:58;87654.41;;;5.41;51.47
46782;BME280;32541;46.298;11.506;2024-01-15T11:52:46;87656.53;;;4.40;53.87
46782;BME280;32541;46.298;11.506;2024-01-15T11:55:33;87658.13;;;4.55;52.93
46782;BME280;32541;46.298;11.506;2024-01-15T11:58:01;87667.72;;;4.23;54.27
46782;BME280;32541;46.298;11.506;2024-01-15T12:00:28;87668.47;;;4.35;54.30
46782;BME280;32541;46.298;11.506;2024-01-15T12:02:54;87656.00;;;4.54;53.90
46782;BME280;32541;46.298;11.506;2024-01-15T12:05:20;87646.91;;;4.28;54.03
46782;BME280;32541;46.298;11.506;2024-01-15T12:07:47;87646.03;;;4.14;55.10
46782;BME280;32541;46.298;11.506;2024-01-15T12:10:17;87643.84;;;3.68;56.18
46782;BME280;32541;46.298;11.506;2024-01-15T12:12:58;87643.31;;;3.60;56.21
46782;BME280;32541;46.298;11.506;2024-01-15T12:15:25;87636.34;;;3.35;56.59
46782;BME280;32541;46.298;11.506;2024-01-15T12:17:51;87636.63;;;3.93;55.42
46782;BME280;32541;46.298;11.506;2024-01-15T12:20:17;87622.09;;;3.47;56.90
46782;BME280;32541;46.298;11.506;2024-01-15T12:22:43;87637.88;;;3.17;58.67
46782;BME280;32541;46.298;11.506;2024-01-15T12:25:09;87625.19;;;3.10;58.12
46782;BME280;32541;46.298;11.506;2024-01-15T12:27:34;87626.28;;;2.86;58.55
46782;BME280;32541;46.298;11.506;2024-01-15T12:30:00;87614.59;;;2.84;59.16
46782;BME280;32541;46.298;11.506;2024-01-15T12:32:25;87610.16;;;3.09;58.87
46782;BME280;32541;46.298;11.506;2024-01-15T12:34:53;87599.38;;;3.21;59.03
46782;BME280;32541;46.298;11.506;2024-01-15T12:37:19;87593.75;;;3.71;57.20
46782;BME280;32541;46.298;11.506;2024-01-15T12:39:47;87584.72;;;4.45;55.63
46782;BME280;32541;46.298;11.506;2024-01-15T12:42:16;87582.72;;;4.46;55.98
46782;BME280;32541;46.298;11.506;2024-01-15T12:44:42;87574.78;;;4.38;55.87
46782;BME280;32541;46.298;11.506;2024-01-15T12:47:08;87581.28;;;3.89;57.43
46782;BME280;32541;46.298;11.506;2024-01-15T12:49:36;87585.22;;;3.22;58.65
46782;BME280;32541;46.298;11.506;2024-01-15T12:52:02;87581.09;;;3.43;59.46
46782;BME280;32541;46.298;11.506;2024-01-15T12:54:28;87577.34;;;3.26;59.67
46782;BME280;32541;46.298;11.506;2024-01-15T12:56:53;87581.16;;;2.91;60.09
46782;BME280;32541;46.298;11.506;2024-01-15T12:59:18;87577.84;;;2.92;60.89
46782;BME280;32541;46.298;11.506;2024-01-15T13:01:45;87575.00;;;2.90;61.24